createdAt,value
2023-04-17T00:01:55.739Z,101528.53
2023-04-17T00:11:59.066Z,101523.50
2023-04-17T00:22:03.604Z,101516.56
2023-04-17T00:32:07.986Z,101512.38
2023-04-17T00:42:12.755Z,101508.06
2023-04-17T00:52:19.227Z,101510.56
2023-04-17T01:02:25.754Z,101508.00
2023-04-17T01:12:29.590Z,101501.28
2023-04-17T01:22:35.419Z,101508.06
2023-04-17T01:32:40.210Z,101501.19
2023-04-17T01:42:43.624Z,101500.38
2023-04-17T01:52:48.533Z,101506.38
2023-04-17T02:02:52.071Z,101506.34
2023-04-17T02:12:56.577Z,101503.75
2023-04-17T02:23:00.331Z,101506.31
2023-04-17T02:33:04.979Z,101502.91
2023-04-17T02:43:09.282Z,101488.34
2023-04-17T02:53:15.808Z,101495.19
2023-04-17T03:03:19.214Z,101494.41
2023-04-17T03:13:24.300Z,101495.19
2023-04-17T03:23:28.952Z,101492.69
2023-04-17T03:33:34.013Z,101497.81
2023-04-17T03:43:37.455Z,101498.72
2023-04-17T03:53:41.978Z,101496.13
2023-04-17T04:03:48.405Z,101505.56
2023-04-17T04:13:53.613Z,101503.00
2023-04-17T04:23:57.289Z,101505.56
2023-04-17T04:34:02.251Z,101502.16
2023-04-17T04:44:06.505Z,101509.84
2023-04-17T04:54:14.413Z,101512.44
2023-04-17T05:04:25.151Z,101527.00
2023-04-17T05:14:34.730Z,101531.34
2023-04-17T05:24:38.530Z,101539.88
2023-04-17T05:34:43.528Z,101548.47
2023-04-17T05:44:47.291Z,101552.75
2023-04-17T05:54:52.765Z,101554.50
2023-04-17T06:04:58.424Z,101556.22
2023-04-17T06:15:05.675Z,101568.34
2023-04-17T06:25:11.819Z,101572.53
2023-04-17T06:35:17.407Z,101580.25
2023-04-17T06:45:25.356Z,101582.84
2023-04-17T06:55:31.124Z,101594.84
2023-04-17T07:05:33.813Z,101601.69
2023-04-17T07:15:38.196Z,101614.56
2023-04-17T07:25:41.365Z,101626.53
2023-04-17T07:35:46.824Z,101634.34
2023-04-17T07:45:50.098Z,101639.47
2023-04-17T07:55:54.954Z,101642.81
2023-04-17T08:05:59.249Z,101648.69
2023-04-17T08:16:04.408Z,101649.28
2023-04-17T08:26:08.158Z,101650.91
2023-04-17T08:36:12.431Z,101653.69
2023-04-17T08:46:16.859Z,101667.16
2023-04-17T08:56:22.385Z,101662.88
2023-04-17T09:06:25.616Z,101658.38
2023-04-17T09:16:31.769Z,101648.09
2023-04-17T09:26:34.584Z,101655.47
2023-04-17T09:36:41.727Z,101651.81
2023-04-17T09:46:48.028Z,101643.25
2023-04-17T09:56:55.983Z,101635.66
2023-04-17T10:06:59.565Z,101651.28
2023-04-17T10:17:23.896Z,101634.16
2023-04-17T10:27:46.525Z,101624.88
2023-04-17T10:38:07.541Z,101605.78
2023-04-17T10:48:20.933Z,101609.22
2023-04-17T10:58:31.662Z,101596.97
2023-04-17T11:08:35.442Z,101592.44
2023-04-17T11:18:40.111Z,101588.16
2023-04-17T11:28:43.080Z,101586.13
2023-04-17T11:38:49.265Z,101593.31
2023-04-17T11:48:52.478Z,101575.69
2023-04-17T11:58:58.568Z,101577.22
2023-04-17T12:09:02.381Z,101572.34
2023-04-17T12:29:43.239Z,101577.91
2023-04-17T12:39:48.867Z,101580.34
2023-04-17T12:49:51.572Z,101577.19
2023-04-17T12:59:56.369Z,101577.97
2023-04-17T13:09:59.393Z,101573.66
2023-04-17T13:30:28.433Z,101558.69
2023-04-17T13:40:32.973Z,101557.59
2023-04-17T13:50:36.244Z,101553.88
2023-04-17T14:00:40.736Z,101541.81
2023-04-17T14:10:43.973Z,101545.91
2023-04-17T14:20:48.711Z,101545.94
2023-04-17T14:30:52.191Z,101539.03
2023-04-17T14:40:56.785Z,101536.63
2023-04-17T14:51:01.703Z,101542.88
2023-04-17T15:01:06.289Z,101537.91
2023-04-17T15:11:09.911Z,101540.59
2023-04-17T15:21:14.395Z,101541.13
2023-04-17T15:31:17.574Z,101541.13
2023-04-17T15:41:21.939Z,101535.03
2023-04-17T15:51:25.137Z,101541.91
2023-04-17T16:01:29.712Z,101536.03
2023-04-17T16:11:34.117Z,101529.81
2023-04-17T16:21:39.112Z,101523.47
2023-04-17T16:31:43.566Z,101516.03
2023-04-17T16:41:48.203Z,101518.28
2023-04-17T16:51:51.293Z,101525.22
2023-04-17T17:01:55.681Z,101522.03
2023-04-17T17:11:58.591Z,101524.75
2023-04-17T17:22:04.570Z,101528.09
2023-04-17T17:32:09.214Z,101538.53
2023-04-17T17:42:14.343Z,101541.44
2023-04-17T17:52:17.942Z,101541.78
2023-04-17T18:02:22.382Z,101554.97
2023-04-17T18:12:25.707Z,101550.91
2023-04-17T18:22:30.306Z,101564.13
2023-04-17T18:32:33.400Z,101574.56
2023-04-17T18:42:37.985Z,101569.59
2023-04-17T18:52:44.039Z,101585.28
2023-04-17T19:02:51.645Z,101586.25
2023-04-17T19:12:54.645Z,101586.63
2023-04-17T19:22:59.571Z,101590.50
2023-04-17T19:33:02.757Z,101593.59
2023-04-17T19:43:07.296Z,101592.91
2023-04-17T19:53:10.825Z,101589.75
2023-04-17T20:03:15.241Z,101584.81
2023-04-17T20:13:18.911Z,101591.72
2023-04-17T20:23:23.537Z,101585.34
2023-04-17T20:33:27.004Z,101584.38
2023-04-17T20:43:33.017Z,101577.34
2023-04-17T20:53:36.074Z,101572.63
2023-04-17T21:03:40.546Z,101567.19
2023-04-17T21:13:44.058Z,101565.56
2023-04-17T21:23:48.468Z,101560.50
2023-04-17T21:33:51.719Z,101565.84
2023-04-17T21:43:56.118Z,101564.22
2023-04-17T21:53:59.060Z,101562.44
2023-04-17T22:04:03.352Z,101570.22
2023-04-17T22:14:06.400Z,101572.94
2023-04-17T22:24:11.542Z,101569.72
2023-04-17T22:34:14.899Z,101575.72
2023-04-17T22:44:19.722Z,101567.19
2023-04-17T22:54:23.322Z,101565.66
2023-04-17T23:04:27.691Z,101572.63
2023-04-17T23:14:30.514Z,101567.66
2023-04-17T23:24:35.290Z,101560.81
2023-04-17T23:34:38.625Z,101562.81
2023-04-17T23:44:43.261Z,101567.19
2023-04-17T23:54:46.178Z,101563.03
